Photometre #399[NE_1.2] OHP_OBSERVATOIRE AOT

File : 20200927_399.hum

27/09/2020,06:20:50,TEMP=6.2,BA=5.68,STAT.A=1.0,ExtBa=13.34
27/09/2020,06:24:26,TEMP=6.6,BA=5.68,STAT.A=1.0,ExtBa=13.27
27/09/2020,06:28:39,TEMP=6.8,BA=5.68,STAT.A=1.0,ExtBa=13.23
27/09/2020,06:33:40,TEMP=7.1,BA=5.64,STAT.A=1.0,ExtBa=13.21
27/09/2020,06:39:43,TEMP=7.6,BA=5.64,STAT.A=1.0,ExtBa=13.22
27/09/2020,06:47:11,TEMP=8.1,BA=5.64,STAT.A=1.0,ExtBa=13.24
27/09/2020,06:56:39,TEMP=8.8,BA=5.68,STAT.B=1.0,ExtBa=13.30
27/09/2020,07:05:28,TEMP=10.0,BA=5.64,STAT.A=1.0,ExtBa=12.79
27/09/2020,07:07:23,TEMP=10.3,BA=5.64,STAT.A=1.0,ExtBa=12.85
27/09/2020,07:12:03,TEMP=10.1,BA=5.64,STAT.A=1.0,ExtBa=13.00
27/09/2020,07:18:36,TEMP=10.6,BA=5.64,STAT.A=1.0,ExtBa=13.11
27/09/2020,07:26:08,TEMP=10.9,BA=5.64,STAT.C=1.0,ExtBa=13.21
27/09/2020,07:40:33,TEMP=11.0,BA=5.64,STAT.A=1.0,ExtBa=12.78
27/09/2020,07:45:22,TEMP=10.7,BA=5.64,STAT.A=1.0,ExtBa=12.99
27/09/2020,07:57:57,TEMP=10.3,BA=5.64,STAT.A=1.0,ExtBa=13.26
27/09/2020,08:13:32,TEMP=11.0,BA=5.64,STAT.A=1.0,ExtBa=13.38
27/09/2020,08:28:29,TEMP=11.5,BA=5.64,STAT.F,ExtBa=13.37
27/09/2020,08:43:27,TEMP=12.0,BA=5.60,STAT.D=1.0,ExtBa=12.83
27/09/2020,08:58:28,TEMP=11.9,BA=5.64,STAT.D=1.0,ExtBa=13.24
27/09/2020,09:13:28,TEMP=12.7,BA=5.64,STAT.D=1.0,ExtBa=13.36
27/09/2020,09:28:29,TEMP=12.7,BA=5.64,STAT.F,ExtBa=13.37
27/09/2020,09:45:03,TEMP=12.2,BA=5.64,STAT.D=1.0,ExtBa=13.42
27/09/2020,09:58:28,TEMP=12.2,BA=5.64,STAT.D=1.0,ExtBa=13.43
27/09/2020,10:13:28,TEMP=12.4,BA=5.64,STAT.D=1.0,ExtBa=13.45
27/09/2020,10:28:30,TEMP=13.9,BA=5.64,STAT.F,ExtBa=13.43
27/09/2020,10:43:28,TEMP=15.4,BA=5.56,STAT.D=1.0,ExtBa=12.91
27/09/2020,10:58:28,TEMP=15.1,BA=5.64,STAT.D=1.0,ExtBa=13.29
27/09/2020,11:13:28,TEMP=15.3,BA=5.64,STAT.D=1.0,ExtBa=13.38
27/09/2020,11:28:30,TEMP=16.1,BA=5.64,STAT.F,ExtBa=13.38
27/09/2020,11:43:28,TEMP=16.4,BA=5.56,STAT.D=1.0,ExtBa=12.87
27/09/2020,11:58:28,TEMP=16.0,BA=5.64,STAT.D=1.0,ExtBa=13.26
27/09/2020,12:13:28,TEMP=16.3,BA=5.64,STAT.D=1.0,ExtBa=13.35
27/09/2020,12:28:30,TEMP=16.1,BA=5.64,STAT.F,ExtBa=13.36
27/09/2020,12:43:21,TEMP=16.5,BA=5.52,STAT.b=1.0
27/09/2020,12:58:27,TEMP=15.0,BA=5.64,STAT.D=1.0,ExtBa=13.24
27/09/2020,13:13:20,TEMP=15.3,BA=5.64,STAT.b=1.0
27/09/2020,13:28:29,TEMP=15.1,BA=5.64,STAT.F,ExtBa=13.36
27/09/2020,13:38:23,TEMP=14.7,BA=5.56,STAT.b=1.0
27/09/2020,13:43:28,TEMP=13.7,BA=5.64,STAT.D=1.0,ExtBa=13.10
27/09/2020,13:58:28,TEMP=12.6,BA=5.64,STAT.D=1.0,ExtBa=13.32
27/09/2020,14:13:20,TEMP=13.1,BA=5.64,STAT.b=1.0
27/09/2020,14:28:28,TEMP=15.0,BA=5.64,STAT.F,ExtBa=13.38
27/09/2020,14:43:26,TEMP=14.4,BA=5.56,STAT.A=1.0,ExtBa=12.82
27/09/2020,14:59:01,TEMP=13.0,BA=5.64,STAT.A=1.0,ExtBa=13.24
27/09/2020,15:11:36,TEMP=13.0,BA=5.64,STAT.A=1.0,ExtBa=13.32
27/09/2020,15:22:01,TEMP=12.6,BA=5.64,STAT.A=1.0,ExtBa=13.32
27/09/2020,15:30:49,TEMP=12.5,BA=5.64,STAT.C=1.0,ExtBa=13.33
27/09/2020,15:44:59,TEMP=11.9,BA=5.56,STAT.A=1.0,ExtBa=12.72
27/09/2020,15:46:54,TEMP=11.9,BA=5.56,STAT.A=1.0,ExtBa=12.79
27/09/2020,15:50:40,TEMP=11.4,BA=5.64,STAT.A=1.0,ExtBa=12.92
27/09/2020,15:55:44,TEMP=10.9,BA=5.64,STAT.A=1.0,ExtBa=13.04
27/09/2020,16:00:17,TEMP=10.6,BA=5.64,STAT.B=1.0,ExtBa=13.10
27/09/2020,16:09:45,TEMP=10.2,BA=5.64,STAT.A=1.0,ExtBa=12.79
27/09/2020,16:17:13,TEMP=10.2,BA=5.60,STAT.A=1.0,ExtBa=13.01
27/09/2020,16:23:16,TEMP=10.2,BA=5.64,STAT.A=1.0,ExtBa=13.08
27/09/2020,16:28:17,TEMP=10.1,BA=5.64,STAT.A=1.0,ExtBa=13.13
27/09/2020,16:32:30,TEMP=10.0,BA=5.64,STAT.A=1.0,ExtBa=13.16
27/09/2020,16:39:49,TEMP=9.6,BA=5.64,STAT.A=1.0,ExtBa=13.23